sensor_id;sensor_type;location;lat;lon;timestamp;pressure;altitude;pressure_sealevel;temperature;humidity
69766;BME280;57039;48.014;21.384;2022-07-06T00:00:27;100242.28;;;22.39;71.06
69766;BME280;57039;48.014;21.384;2022-07-06T00:10:30;100237.91;;;22.46;71.83
69766;BME280;57039;48.014;21.384;2022-07-06T00:20:33;100257.50;;;22.39;71.44
69766;BME280;57039;48.014;21.384;2022-07-06T00:30:36;100271.09;;;21.78;73.78
69766;BME280;57039;48.014;21.384;2022-07-06T00:40:39;100267.28;;;21.47;76.40
69766;BME280;57039;48.014;21.384;2022-07-06T00:50:43;100242.25;;;21.48;76.52
69766;BME280;57039;48.014;21.384;2022-07-06T01:00:46;100275.25;;;21.81;75.71
69766;BME280;57039;48.014;21.384;2022-07-06T01:10:50;100273.97;;;21.93;74.61
69766;BME280;57039;48.014;21.384;2022-07-06T01:21:11;100267.44;;;21.37;76.94
69766;BME280;57039;48.014;21.384;2022-07-06T01:31:15;100276.62;;;21.16;78.78
69766;BME280;57039;48.014;21.384;2022-07-06T01:41:19;100274.91;;;21.07;78.96
69766;BME280;57039;48.014;21.384;2022-07-06T01:51:23;100285.53;;;20.99;79.40
69766;BME280;57039;48.014;21.384;2022-07-06T02:01:27;100287.69;;;21.22;78.40
69766;BME280;57039;48.014;21.384;2022-07-06T02:11:31;100285.41;;;21.09;79.10
69766;BME280;57039;48.014;21.384;2022-07-06T02:21:34;100289.28;;;21.14;78.97
69766;BME280;57039;48.014;21.384;2022-07-06T02:31:37;100297.34;;;21.23;77.79
69766;BME280;57039;48.014;21.384;2022-07-06T02:41:40;100301.87;;;21.56;76.49
69766;BME280;57039;48.014;21.384;2022-07-06T02:51:44;100318.37;;;21.52;77.58
69766;BME280;57039;48.014;21.384;2022-07-06T03:01:47;100332.59;;;21.34;79.43
69766;BME280;57039;48.014;21.384;2022-07-06T03:11:51;100334.88;;;21.47;79.27
69766;BME280;57039;48.014;21.384;2022-07-06T03:21:54;100362.84;;;21.69;78.59
69766;BME280;57039;48.014;21.384;2022-07-06T03:31:58;100367.66;;;21.65;78.36
69766;BME280;57039;48.014;21.384;2022-07-06T03:42:02;100368.50;;;21.66;78.22
69766;BME280;57039;48.014;21.384;2022-07-06T03:52:05;100365.53;;;21.69;78.26
69766;BME280;57039;48.014;21.384;2022-07-06T04:02:10;100378.47;;;21.56;73.28
69766;BME280;57039;48.014;21.384;2022-07-06T04:12:14;100374.91;;;21.47;73.31
69766;BME280;57039;48.014;21.384;2022-07-06T04:22:19;100392.97;;;21.27;74.44
69766;BME280;57039;48.014;21.384;2022-07-06T04:32:22;100393.78;;;21.28;75.62
69766;BME280;57039;48.014;21.384;2022-07-06T04:42:30;100397.94;;;21.04;75.74
69766;BME280;57039;48.014;21.384;2022-07-06T04:52:34;100419.09;;;20.97;76.64
69766;BME280;57039;48.014;21.384;2022-07-06T05:02:38;100428.59;;;21.18;74.24
69766;BME280;57039;48.014;21.384;2022-07-06T05:12:41;100440.13;;;21.27;72.94
69766;BME280;57039;48.014;21.384;2022-07-06T05:22:44;100457.63;;;21.39;71.59
69766;BME280;57039;48.014;21.384;2022-07-06T05:32:49;100470.38;;;21.53;70.17
69766;BME280;57039;48.014;21.384;2022-07-06T05:42:52;100484.84;;;21.25;69.97
69766;BME280;57039;48.014;21.384;2022-07-06T05:52:58;100487.66;;;21.41;70.52
69766;BME280;57039;48.014;21.384;2022-07-06T06:03:01;100494.13;;;21.38;72.85
69766;BME280;57039;48.014;21.384;2022-07-06T06:13:06;100493.22;;;21.12;77.08
69766;BME280;57039;48.014;21.384;2022-07-06T06:23:22;100521.50;;;20.32;82.63
69766;BME280;57039;48.014;21.384;2022-07-06T06:33:25;100521.56;;;20.49;83.28
69766;BME280;57039;48.014;21.384;2022-07-06T06:43:29;100518.03;;;20.59;83.98
69766;BME280;57039;48.014;21.384;2022-07-06T06:53:34;100521.19;;;20.90;83.45
69766;BME280;57039;48.014;21.384;2022-07-06T07:03:41;100527.38;;;21.44;81.74
69766;BME280;57039;48.014;21.384;2022-07-06T07:13:44;100530.06;;;21.44;81.62
69766;BME280;57039;48.014;21.384;2022-07-06T07:23:48;100536.91;;;21.29;81.54
69766;BME280;57039;48.014;21.384;2022-07-06T07:33:52;100536.66;;;20.86;82.55
69766;BME280;57039;48.014;21.384;2022-07-06T07:44:00;100531.47;;;21.03;83.82
69766;BME280;57039;48.014;21.384;2022-07-06T07:54:04;100546.84;;;21.36;77.81
69766;BME280;57039;48.014;21.384;2022-07-06T08:04:07;100551.00;;;21.75;75.03
69766;BME280;57039;48.014;21.384;2022-07-06T08:14:10;100565.53;;;22.59;73.12
69766;BME280;57039;48.014;21.384;2022-07-06T08:24:14;100579.97;;;23.41;68.72
69766;BME280;57039;48.014;21.384;2022-07-06T08:43:36;100602.84;;;24.42;62.04
69766;BME280;57039;48.014;21.384;2022-07-06T08:53:44;100599.75;;;24.69;58.43
69766;BME280;57039;48.014;21.384;2022-07-06T09:03:49;100616.69;;;24.62;60.52
69766;BME280;57039;48.014;21.384;2022-07-06T09:13:52;100608.91;;;24.83;58.36
69766;BME280;57039;48.014;21.384;2022-07-06T09:23:57;100605.66;;;25.73;54.59
69766;BME280;57039;48.014;21.384;2022-07-06T09:34:06;100597.78;;;25.48;55.32
69766;BME280;57039;48.014;21.384;2022-07-06T09:44:09;100612.72;;;25.51;53.46
69766;BME280;57039;48.014;21.384;2022-07-06T09:54:14;100621.81;;;26.40;47.79
69766;BME280;57039;48.014;21.384;2022-07-06T10:04:18;100624.00;;;27.26;45.33
69766;BME280;57039;48.014;21.384;2022-07-06T10:14:25;100633.97;;;27.11;43.43
69766;BME280;57039;48.014;21.384;2022-07-06T10:24:30;100635.31;;;25.88;45.93
69766;BME280;57039;48.014;21.384;2022-07-06T10:34:36;100622.47;;;27.02;44.14
69766;BME280;57039;48.014;21.384;2022-07-06T10:44:44;100632.22;;;27.39;41.85
69766;BME280;57039;48.014;21.384;2022-07-06T10:54:47;100606.97;;;28.18;40.13
69766;BME280;57039;48.014;21.384;2022-07-06T11:04:50;100608.38;;;29.58;37.17
69766;BME280;57039;48.014;21.384;2022-07-06T11:14:54;100621.94;;;28.90;38.68
69766;BME280;57039;48.014;21.384;2022-07-06T11:24:58;100623.97;;;29.43;38.54
69766;BME280;57039;48.014;21.384;2022-07-06T11:35:01;100560.81;;;28.82;37.62
69766;BME280;57039;48.014;21.384;2022-07-06T11:45:05;100609.22;;;29.45;36.56
69766;BME280;57039;48.014;21.384;2022-07-06T11:55:08;100607.19;;;29.80;34.65
69766;BME280;57039;48.014;21.384;2022-07-06T12:05:11;100596.78;;;29.77;34.00
69766;BME280;57039;48.014;21.384;2022-07-06T12:15:14;100598.59;;;28.69;35.03
69766;BME280;57039;48.014;21.384;2022-07-06T12:25:34;100547.59;;;30.27;33.44
69766;BME280;57039;48.014;21.384;2022-07-06T12:35:38;100585.22;;;30.55;31.16
69766;BME280;57039;48.014;21.384;2022-07-06T12:45:41;100577.75;;;30.44;31.21
69766;BME280;57039;48.014;21.384;2022-07-06T12:55:48;100577.56;;;30.45;31.32
69766;BME280;57039;48.014;21.384;2022-07-06T13:05:51;100577.19;;;30.22;33.52
69766;BME280;57039;48.014;21.384;2022-07-06T13:15:54;100572.44;;;29.71;32.44
69766;BME280;57039;48.014;21.384;2022-07-06T13:25:58;100574.69;;;30.07;32.74
69766;BME280;57039;48.014;21.384;2022-07-06T13:36:02;100565.50;;;29.02;34.88
69766;BME280;57039;48.014;21.384;2022-07-06T13:46:06;100553.25;;;30.06;31.71
69766;BME280;57039;48.014;21.384;2022-07-06T13:56:11;100543.84;;;30.15;31.16
69766;BME280;57039;48.014;21.384;2022-07-06T14:06:14;100536.00;;;29.87;31.38
69766;BME280;57039;48.014;21.384;2022-07-06T14:16:19;100537.41;;;30.09;31.58
69766;BME280;57039;48.014;21.384;2022-07-06T14:26:22;100537.69;;;29.48;32.09
69766;BME280;57039;48.014;21.384;2022-07-06T14:36:25;100535.44;;;28.70;33.59
69766;BME280;57039;48.014;21.384;2022-07-06T14:46:28;100537.72;;;28.73;33.82
69766;BME280;57039;48.014;21.384;2022-07-06T14:56:31;100549.69;;;28.51;33.73
69766;BME280;57039;48.014;21.384;2022-07-06T15:06:34;100537.28;;;28.63;34.02
69766;BME280;57039;48.014;21.384;2022-07-06T15:16:57;100523.53;;;28.16;34.08
69766;BME280;57039;48.014;21.384;2022-07-06T15:27:02;100540.22;;;27.92;33.06
69766;BME280;57039;48.014;21.384;2022-07-06T15:37:06;100530.44;;;28.67;31.86
69766;BME280;57039;48.014;21.384;2022-07-06T15:47:09;100531.94;;;28.35;32.63
69766;BME280;57039;48.014;21.384;2022-07-06T15:57:12;100547.06;;;27.94;33.86
69766;BME280;57039;48.014;21.384;2022-07-06T16:07:16;100562.19;;;27.67;34.53
69766;BME280;57039;48.014;21.384;2022-07-06T16:17:39;100574.59;;;27.19;36.25
69766;BME280;57039;48.014;21.384;2022-07-06T16:27:42;100563.28;;;26.72;37.04
69766;BME280;57039;48.014;21.384;2022-07-06T16:37:45;100565.19;;;26.93;36.97
69766;BME280;57039;48.014;21.384;2022-07-06T16:47:48;100560.62;;;26.57;37.87
69766;BME280;57039;48.014;21.384;2022-07-06T16:57:56;100581.66;;;26.39;38.33
69766;BME280;57039;48.014;21.384;2022-07-06T17:07:59;100582.28;;;25.82;39.39
69766;BME280;57039;48.014;21.384;2022-07-06T17:18:02;100582.84;;;25.69;39.52
69766;BME280;57039;48.014;21.384;2022-07-06T17:28:06;100594.09;;;25.49;38.56
69766;BME280;57039;48.014;21.384;2022-07-06T17:38:09;100602.03;;;25.43;38.80
69766;BME280;57039;48.014;21.384;2022-07-06T17:48:13;100621.66;;;25.20;38.95
69766;BME280;57039;48.014;21.384;2022-07-06T17:58:17;100642.81;;;24.76;39.48
69766;BME280;57039;48.014;21.384;2022-07-06T18:08:20;100629.81;;;24.56;39.11
69766;BME280;57039;48.014;21.384;2022-07-06T18:18:24;100662.53;;;24.44;38.66
69766;BME280;57039;48.014;21.384;2022-07-06T18:28:28;100687.16;;;24.23;38.79
69766;BME280;57039;48.014;21.384;2022-07-06T18:38:32;100683.16;;;23.94;39.49
69766;BME280;57039;48.014;21.384;2022-07-06T18:48:36;100700.69;;;23.64;41.85
69766;BME280;57039;48.014;21.384;2022-07-06T18:58:42;100713.28;;;23.13;44.85
69766;BME280;57039;48.014;21.384;2022-07-06T19:08:47;100727.66;;;22.86;45.23
69766;BME280;57039;48.014;21.384;2022-07-06T19:18:51;100733.69;;;22.88;45.26
69766;BME280;57039;48.014;21.384;2022-07-06T19:28:54;100740.34;;;22.84;45.14
69766;BME280;57039;48.014;21.384;2022-07-06T19:38:57;100759.91;;;22.84;45.33
69766;BME280;57039;48.014;21.384;2022-07-06T19:49:01;100768.94;;;22.57;45.46
69766;BME280;57039;48.014;21.384;2022-07-06T19:59:04;100761.56;;;22.33;45.95
69766;BME280;57039;48.014;21.384;2022-07-06T20:09:10;100780.38;;;22.23;45.06
69766;BME280;57039;48.014;21.384;2022-07-06T20:19:15;100789.84;;;22.18;45.57
69766;BME280;57039;48.014;21.384;2022-07-06T20:29:24;100790.88;;;22.07;46.20
69766;BME280;57039;48.014;21.384;2022-07-06T20:39:30;100785.59;;;21.79;46.96
69766;BME280;57039;48.014;21.384;2022-07-06T20:49:33;100794.97;;;21.83;47.22
69766;BME280;57039;48.014;21.384;2022-07-06T20:59:36;100802.78;;;21.95;47.30
69766;BME280;57039;48.014;21.384;2022-07-06T21:09:42;100808.16;;;21.67;47.22
69766;BME280;57039;48.014;21.384;2022-07-06T21:19:45;100814.81;;;21.53;47.03
69766;BME280;57039;48.014;21.384;2022-07-06T21:29:48;100798.78;;;21.53;47.35
69766;BME280;57039;48.014;21.384;2022-07-06T21:39:51;100817.00;;;21.40;48.50
69766;BME280;57039;48.014;21.384;2022-07-06T21:49:54;100828.38;;;21.32;49.01
69766;BME280;57039;48.014;21.384;2022-07-06T21:59:58;100838.78;;;21.26;49.46
69766;BME280;57039;48.014;21.384;2022-07-06T22:10:02;100824.34;;;21.18;50.00
69766;BME280;57039;48.014;21.384;2022-07-06T22:20:06;100846.00;;;21.15;50.02
69766;BME280;57039;48.014;21.384;2022-07-06T22:30:09;100843.63;;;21.12;50.61
69766;BME280;57039;48.014;21.384;2022-07-06T22:40:13;100848.66;;;21.15;50.66
69766;BME280;57039;48.014;21.384;2022-07-06T22:50:35;100851.34;;;21.06;51.06
69766;BME280;57039;48.014;21.384;2022-07-06T23:00:38;100846.19;;;20.94;51.82
69766;BME280;57039;48.014;21.384;2022-07-06T23:10:41;100853.06;;;20.97;52.68
69766;BME280;57039;48.014;21.384;2022-07-06T23:20:44;100858.53;;;20.95;51.69
69766;BME280;57039;48.014;21.384;2022-07-06T23:30:48;100865.81;;;20.93;52.43
69766;BME280;57039;48.014;21.384;2022-07-06T23:40:51;100864.78;;;21.24;51.13
69766;BME280;57039;48.014;21.384;2022-07-06T23:50:54;100849.38;;;21.08;52.17
